Carter Lake, Iowa
Current Conditions -  °F | °C
As of 6:52 AM on Saturday 22 Nov 2014 (Local Time) from KOMA Reporting Station
Haze Haze  
Wind Chill: 33°   Ceiling: 600
Heat Index: 39°   Visibility: 4mi
Dew Point: 37°   Wind: 9mph
Humidity: 93%   Direction: 180°S
Pressure: 29.89"   Gusts: NA
Location:  41.29°N, 95.92°W
Report Text: KOMA 221252Z 18008KT 4SM BR OVC006 04/03 A2989 RMK AO2 SLP128 T00390028 $
Loading
Personal Weather Stations






























Interactive Weather Map New forecast layout! Learn more

10-Day Weather Forecast

Advertisements
Track Severe Weather on mobile